SCFASCCF

Guest
Details From SCFA - CERRO MORENO INTL
To SCCF - EL LOA
Flight Number -
Tags generated
Created
Modified
Stats Distance 103 nm / 191 km
Max Altitude 0 ft / 0 m
Waypoints 3
Social Downloads 1
Likes 0
Share VATSIM

Download

Looking for another format? Having issues loading an existing format? Contact us
Advertisement - Login to hide

Notes

Basic altitude profile: - Ascent Rate: 2500ft/min - Ascent Speed: 250kts - Cruise Altitude: 20000ft - Cruise Speed: 420kts - Descent Rate: 1500ft/min - Descent Speed: 250kts Options: - Use NATs: yes - Use PACOTS: yes - Use low airways: yes - Use high airways: yes

Route

SCFA CFL SCCF

ID Type Via Altitude (ft/m) Position (lat/lon) Dist (leg/tot) Name
O SCFA APT - 0 / 0 -23.44448 / -70.44510 - / 0 nm CERRO MORENO INTL
CFL NDB - 0 / 0 -22.49361 / -68.90306 102 / 102 nm CALAMA NDB
O SCCF APT - 0 / 0 -22.49818 / -68.90358 0 / 102 nm EL LOA

Altitude Profile

Advertisement - Login to hide

SCFA

Details ICAO SCFA (ANF)
Name CERRO MORENO INTL
Region Chile
Timezone America/Santiago (UTC-3.0)
Stats Elevation 455 ft / 139 m (AMSL)
Location -23.444500° -70.445100°
Runways 1
Magnetic Variation 3.661° W

METAR

SCFA 160900Z 23003KT 9999 OVC008 16/13 Q1015 NOSIG

Decode

TAF

TAF SCFA 160418Z 1606/1706 18004KT 9999 SCT008 TN15/1606Z TX19/1618Z BECMG 1613/1615 22014KT FEW010 SCT300 BECMG 1622/1624 18008KT BKN009 BECMG 1705/1706 06004KT

Decode

Departure Runways

ID Width Length Bearing (true/mag) Surface Threshold Overrun Markings Lighting
01 164 ft / 50 m 8,567 ft / 2,611 m 6.86° / 10.52° ASPHALT 0 ft / 0 m 50 ft / 15 m APP EDGE THRESHOLD MALS REIL-OMNI
19 164 ft / 50 m 8,567 ft / 2,611 m 186.86° / 190.52° ASPHALT 0 ft / 0 m 155 ft / 47 m APP EDGE THRESHOLD REIL-OMNI

SCCF

Details ICAO SCCF (CJC)
Name EL LOA
Region Chile
Timezone America/Santiago (UTC-3.0)
Stats Elevation 7,543 ft / 2,299 m (AMSL)
Location -22.498200° -68.903600°
Runways 1
Magnetic Variation 5.458° W

METAR

SCCF 160900Z 09014KT CAVOK 10/M03 Q1025

Decode

TAF

TAF SCCF 160417Z 1606/1706 11013KT CAVOK TN08/1606Z TX24/1618Z BECMG 1613/1614 08004KT BECMG 1616/1618 27025KT FEW060 SCT200 TEMPO 1618/1622 27026G36KT BECMG 1622/1700 25015KT CAVOK BECMG 1703/1705 11013KT

Decode

Destination Runways

ID Width Length Bearing (true/mag) Surface Threshold Overrun Markings Lighting
10 98 ft / 30 m 9,455 ft / 2,882 m 93.61° / 99.07° ASPHALT 0 ft / 0 m 100 ft / 30 m APP EDGE THRESHOLD REIL-OMNI
28 98 ft / 30 m 9,455 ft / 2,882 m 273.60° / 279.05° ASPHALT 0 ft / 0 m 100 ft / 30 m APP EDGE THRESHOLD REIL-OMNI

Popular Alternatives